Time;durP1;ratioP1;P1;durP2;ratioP2;P2;SDS_P1;SDS_P2;PMS_P1;PMS_P2;Temp;Humidity;BMP_temperature;BMP_pressure;BME280_temperature;BME280_humidity;BME280_pressure;Samples;Min_cycle;Max_cycle;Signal;HPM_P1;HPM_P2
2022/06/04 00:01:35;;;;;;;16.15;14.55;;;;;;;20.23;nan;100015.72;4962774;28;20542;-81
2022/06/04 00:04:00;;;;;;;20.95;16.88;;;;;;;20.20;nan;100008.06;4961198;28;20436;-82
2022/06/04 00:06:27;;;;;;;20.38;17.13;;;;;;;20.17;nan;100011.13;4963891;28;20035;-81
2022/06/04 00:08:53;;;;;;;19.45;16.45;;;;;;;20.17;nan;100011.13;4963799;28;20034;-81
2022/06/04 00:16:46;;;;;;;20.52;17.73;;;;;;;20.11;nan;100008.38;4962909;28;20047;-81
2022/06/04 00:19:11;;;;;;;19.92;17.92;;;;;;;20.12;nan;100002.84;4961988;28;20045;-81
2022/06/04 00:21:38;;;;;;;20.52;17.98;;;;;;;20.15;nan;100006.97;4976623;28;20519;-81
2022/06/04 00:24:05;;;;;;;20.73;18.30;;;;;;;20.20;nan;99999.22;4963242;28;20050;-82
2022/06/04 00:26:31;;;;;;;21.25;17.02;;;;;;;20.20;nan;99991.16;4960899;28;20511;-81
2022/06/04 00:28:56;;;;;;;20.50;18.33;;;;;;;20.22;nan;99997.97;4963780;28;20102;-82
2022/06/04 00:31:22;;;;;;;18.52;16.58;;;;;;;20.26;nan;99987.72;4959417;28;20552;-80
2022/06/04 00:33:47;;;;;;;18.40;16.55;;;;;;;20.29;nan;99987.31;4962873;28;20895;-81
2022/06/04 00:36:13;;;;;;;20.75;17.25;;;;;;;20.33;nan;99993.94;4961153;28;20118;-81
2022/06/04 00:38:39;;;;;;;18.55;16.52;;;;;;;20.33;nan;99993.94;4960924;28;20042;-80
2022/06/04 00:41:19;;;;;;;17.15;15.35;;;;;;;20.33;nan;99983.22;4961380;28;20038;-81
2022/06/04 00:44:01;;;;;;;18.98;16.77;;;;;;;20.31;nan;99980.75;4959883;28;20117;-82
2022/06/04 00:46:55;;;;;;;18.08;16.23;;;;;;;20.19;nan;99984.16;4960710;28;20042;-81
2022/06/04 00:49:22;;;;;;;20.15;16.30;;;;;;;20.15;nan;99990.88;4959733;28;20050;-81
2022/06/04 00:51:50;;;;;;;19.05;17.05;;;;;;;20.12;nan;99985.94;4962818;28;20039;-82
2022/06/04 00:54:15;;;;;;;18.52;16.70;;;;;;;19.99;nan;99986.66;4961115;28;20023;-81
2022/06/04 00:57:02;;;;;;;19.40;17.42;;;;;;;19.93;nan;99977.53;4961827;28;20377;-81
2022/06/04 00:59:51;;;;;;;22.90;18.08;;;;;;;19.87;nan;99962.22;4957469;28;20043;-81
2022/06/04 01:02:25;;;;;;;21.63;19.25;;;;;;;19.86;nan;99965.94;4958385;28;20047;-81
2022/06/04 01:04:56;;;;;;;21.75;18.98;;;;;;;19.82;nan;99970.03;4961972;28;20141;-81
2022/06/04 01:07:34;;;;;;;21.75;19.45;;;;;;;19.75;nan;99963.78;4961656;28;20051;-81
2022/06/04 01:10:22;;;;;;;23.55;19.38;;;;;;;19.75;nan;99953.06;4963976;28;20031;-82
2022/06/04 01:13:07;;;;;;;21.40;18.20;;;;;;;19.71;nan;99943.75;4964358;28;20050;-81
2022/06/04 01:15:44;;;;;;;20.30;18.10;;;;;;;19.69;nan;99943.13;4964889;28;20055;-81
2022/06/04 01:18:19;;;;;;;25.05;19.73;;;;;;;19.66;nan;99938.16;4966614;28;20482;-81
2022/06/04 01:21:22;;;;;;;20.73;18.50;;;;;;;19.61;nan;99940.59;4981897;28;20038;-80
2022/06/04 01:23:56;;;;;;;20.30;18.10;;;;;;;19.62;nan;99931.50;4970732;28;20093;-81
2022/06/04 01:26:33;;;;;;;19.40;17.52;;;;;;;19.60;nan;99928.22;4964474;28;20066;-81
2022/06/04 01:29:07;;;;;;;23.20;18.05;;;;;;;19.60;nan;99933.56;4964241;28;20547;-81
2022/06/04 01:31:58;;;;;;;18.95;16.90;;;;;;;19.57;nan;99925.91;4966606;28;20039;-82
2022/06/04 01:34:32;;;;;;;21.35;15.88;;;;;;;19.53;nan;99917.44;4963701;28;20852;-80
2022/06/04 01:37:04;;;;;;;16.27;14.60;;;;;;;19.51;nan;99929.34;4963591;28;20046;-81
2022/06/04 01:42:23;;;;;;;18.83;14.88;;;;;;;19.43;nan;99926.78;4966587;28;20035;-81
2022/06/04 01:44:52;;;;;;;18.65;14.13;;;;;;;19.40;nan;99929.81;4963574;28;20519;-80
2022/06/04 01:47:20;;;;;;;15.70;13.85;;;;;;;19.35;nan;99929.56;4966087;28;20038;-80
2022/06/04 01:49:51;;;;;;;16.50;14.82;;;;;;;19.32;nan;99927.28;4963576;28;20498;-81
2022/06/04 01:52:28;;;;;;;19.35;15.07;;;;;;;19.29;nan;99922.31;4980879;28;20118;-80
2022/06/04 01:55:02;;;;;;;15.93;14.23;;;;;;;19.28;nan;99923.31;4963142;28;20130;-81
2022/06/04 01:58:08;;;;;;;15.73;14.13;;;;;;;19.26;nan;99922.69;4963425;28;20040;-81
2022/06/04 02:00:40;;;;;;;15.77;14.35;;;;;;;19.22;nan;99931.09;4965389;28;20058;-81
2022/06/04 02:03:23;;;;;;;16.10;14.35;;;;;;;19.22;nan;99928.41;4964014;28;20436;-81
2022/06/04 02:05:55;;;;;;;15.70;14.15;;;;;;;19.25;nan;99918.38;4962930;28;20377;-81
2022/06/04 02:08:31;;;;;;;16.15;13.77;;;;;;;19.22;nan;99917.72;4966091;28;20074;-81
2022/06/04 02:11:17;;;;;;;14.93;13.32;;;;;;;19.19;nan;99910.06;4962765;28;20050;-81
2022/06/04 02:13:46;;;;;;;13.73;12.40;;;;;;;19.20;nan;99921.63;4964238;28;20031;-80
2022/06/04 02:16:15;;;;;;;15.48;13.95;;;;;;;19.17;nan;99938.84;4963862;28;20051;-82
2022/06/04 02:18:40;;;;;;;18.42;16.48;;;;;;;19.01;nan;99941.75;4964226;28;20066;-81
2022/06/04 02:21:06;;;;;;;18.42;15.00;;;;;;;18.85;nan;99944.63;4963232;28;20475;-81
2022/06/04 02:23:33;;;;;;;19.95;16.02;;;;;;;18.52;nan;99943.34;4962866;28;20408;-82
2022/06/04 02:25:59;;;;;;;23.80;16.17;;;;;;;18.41;nan;99937.44;4965661;28;20438;-82
2022/06/04 02:28:26;;;;;;;22.05;18.73;;;;;;;18.45;nan;99923.69;4962670;28;20539;-81
2022/06/04 02:31:36;;;;;;;21.38;18.85;;;;;;;18.54;nan;99904.72;4965203;28;20367;-81
2022/06/04 02:34:26;;;;;;;27.48;20.73;;;;;;;18.64;nan;99904.47;4941318;29;20089;-81
2022/06/04 02:37:11;;;;;;;24.65;20.33;;;;;;;18.64;nan;99899.13;4963488;28;20067;-82
2022/06/04 02:40:09;;;;;;;25.17;20.33;;;;;;;18.64;nan;99896.44;4963284;28;20517;-81
2022/06/04 02:43:04;;;;;;;23.52;20.27;;;;;;;18.55;nan;99894.91;4962848;28;20054;-81
2022/06/04 02:45:38;;;;;;;24.50;20.75;;;;;;;18.53;nan;99891.56;4962344;28;20039;-81
2022/06/04 02:48:22;;;;;;;25.80;20.75;;;;;;;18.56;nan;99901.88;4963236;28;20038;-80
2022/06/04 02:50:53;;;;;;;24.90;20.45;;;;;;;18.56;nan;99909.91;4963949;28;20030;-81
2022/06/04 02:53:20;;;;;;;29.17;20.98;;;;;;;18.58;nan;99913.22;4962406;28;20035;-81
2022/06/04 02:55:52;;;;;;;23.75;20.70;;;;;;;18.60;nan;99913.88;4964121;28;20031;-80
2022/06/04 02:58:21;;;;;;;26.00;21.25;;;;;;;18.62;nan;99914.50;4962794;28;20472;-82
2022/06/04 03:00:51;;;;;;;26.83;21.90;;;;;;;18.65;nan;99906.13;4963994;28;20465;-82
2022/06/04 03:03:16;;;;;;;25.80;21.05;;;;;;;18.70;nan;99909.91;4962724;28;20081;-82
2022/06/04 03:05:55;;;;;;;25.88;22.42;;;;;;;18.74;nan;99905.00;4962274;28;20039;-81
2022/06/04 03:08:22;;;;;;;25.92;21.80;;;;;;;18.78;nan;99917.00;4964247;28;20234;-82
2022/06/04 03:10:48;;;;;;;28.48;22.27;;;;;;;18.74;nan;99918.38;4962174;28;20449;-81
2022/06/04 03:13:14;;;;;;;23.55;19.05;;;;;;;18.68;nan;99924.47;4963781;28;20035;-81
2022/06/04 03:15:40;;;;;;;21.77;17.65;;;;;;;18.68;nan;99911.94;4962690;28;20476;-81
2022/06/04 03:18:05;;;;;;;17.85;16.05;;;;;;;18.68;nan;99916.44;4962889;28;20030;-81
2022/06/04 03:20:31;;;;;;;20.80;16.77;;;;;;;18.67;nan;99904.13;4963822;28;20118;-81
2022/06/04 03:22:57;;;;;;;20.08;17.30;;;;;;;18.66;nan;99907.78;4961463;28;20085;-81
2022/06/04 03:25:22;;;;;;;21.58;18.75;;;;;;;18.65;nan;99914.16;4959823;28;20044;-81
2022/06/04 03:27:53;;;;;;;23.40;20.58;;;;;;;18.66;nan;99918.50;4961731;28;20042;-81
2022/06/04 03:30:18;;;;;;;28.42;22.52;;;;;;;18.64;nan;99917.84;4964328;28;20043;-81
2022/06/04 03:32:44;;;;;;;22.45;20.05;;;;;;;18.66;nan;99913.16;4964656;28;20031;-81
2022/06/04 03:35:10;;;;;;;22.73;18.30;;;;;;;18.65;nan;99909.63;4963601;28;20042;-80
2022/06/04 03:37:36;;;;;;;24.90;18.23;;;;;;;18.66;nan;99918.50;4963009;28;20042;-81
2022/06/04 03:40:04;;;;;;;21.00;18.92;;;;;;;18.63;nan;99906.31;4962179;28;20403;-81
2022/06/04 03:42:30;;;;;;;20.00;17.92;;;;;;;18.62;nan;99901.16;4964859;28;20089;-81
2022/06/04 03:44:55;;;;;;;26.38;19.00;;;;;;;18.62;nan;99904.66;4968782;28;20039;-82
2022/06/04 03:47:21;;;;;;;19.50;16.33;;;;;;;18.61;nan;99910.19;4992639;28;20046;-81
2022/06/04 03:49:46;;;;;;;17.45;15.38;;;;;;;18.58;nan;99907.88;4962236;28;20440;-80
2022/06/04 03:52:15;;;;;;;18.40;16.00;;;;;;;18.55;nan;99918.97;4963037;28;20511;-81
2022/06/04 03:54:54;;;;;;;18.77;16.45;;;;;;;18.53;nan;99916.44;4962540;28;20078;-81
2022/06/04 03:57:38;;;;;;;17.42;15.20;;;;;;;18.53;nan;99915.59;4963796;28;20456;-80
2022/06/04 04:00:28;;;;;;;18.65;16.10;;;;;;;18.52;nan;99921.97;4964630;28;20114;-81
2022/06/04 04:02:58;;;;;;;18.30;16.40;;;;;;;18.44;nan;99932.75;4975312;28;20042;-81
2022/06/04 04:05:27;;;;;;;19.55;15.88;;;;;;;18.41;nan;99934.78;4961858;28;20050;-81
2022/06/04 04:07:54;;;;;;;20.90;15.18;;;;;;;18.45;nan;99937.06;4958718;28;20439;-82
2022/06/04 04:10:21;;;;;;;16.95;14.57;;;;;;;18.48;nan;99948.22;4963131;28;20035;-81
2022/06/04 04:12:46;;;;;;;17.70;15.90;;;;;;;18.46;nan;99960.09;4960678;28;20039;-81
2022/06/04 04:15:13;;;;;;;16.92;15.10;;;;;;;18.40;nan;99962.50;4961780;28;20396;-81
2022/06/04 04:17:39;;;;;;;19.60;13.48;;;;;;;18.46;nan;99965.44;4961491;28;20125;-81
2022/06/04 04:20:09;;;;;;;18.55;14.25;;;;;;;18.56;nan;99963.34;4960879;28;20028;-81
2022/06/04 04:22:35;;;;;;;17.55;15.65;;;;;;;18.63;nan;99972.31;4962167;28;20120;-80
2022/06/04 04:25:01;;;;;;;17.88;15.32;;;;;;;18.66;nan;99970.09;4975024;28;20428;-81
2022/06/04 04:27:26;;;;;;;16.08;14.48;;;;;;;18.75;nan;99970.81;4967229;28;20034;-81
2022/06/04 04:29:52;;;;;;;18.88;16.00;;;;;;;18.77;nan;99971.47;4958089;28;20499;-80
2022/06/04 04:32:17;;;;;;;20.67;16.35;;;;;;;18.82;nan;99969.06;4962448;28;20175;-80
2022/06/04 04:34:43;;;;;;;17.23;15.63;;;;;;;18.85;nan;99970.56;4960720;28;20098;-80
2022/06/04 04:37:08;;;;;;;18.75;14.90;;;;;;;18.83;nan;99978.75;4960952;28;20037;-81
2022/06/04 04:39:34;;;;;;;15.63;14.13;;;;;;;18.80;nan;99981.78;4962229;28;20035;-81
2022/06/04 04:41:59;;;;;;;18.88;16.50;;;;;;;18.87;nan;99984.56;4959746;28;20054;-81
2022/06/04 04:44:25;;;;;;;18.58;14.93;;;;;;;18.90;nan;99968.16;4964304;28;20062;-81
2022/06/04 04:46:51;;;;;;;18.73;16.58;;;;;;;18.93;nan;99957.06;4964015;28;20031;-81
2022/06/04 04:49:17;;;;;;;16.42;14.70;;;;;;;18.98;nan;99968.88;4966663;28;20031;-81
2022/06/04 04:51:43;;;;;;;16.10;14.27;;;;;;;19.01;nan;99970.34;4965017;28;20078;-81
2022/06/04 04:54:08;;;;;;;14.40;13.07;;;;;;;18.99;nan;99973.22;4965502;28;20395;-80
2022/06/04 04:56:34;;;;;;;15.52;13.32;;;;;;;19.03;nan;99974.47;4966617;28;20057;-81
2022/06/04 04:58:59;;;;;;;15.45;13.85;;;;;;;19.09;nan;99979.09;4964297;28;20042;-81
2022/06/04 05:01:27;;;;;;;17.25;13.60;;;;;;;19.08;nan;99977.44;4964213;28;20488;-81
2022/06/04 05:03:53;;;;;;;16.27;14.70;;;;;;;19.08;nan;99979.28;4966955;28;20031;-80
2022/06/04 05:06:20;;;;;;;17.20;15.40;;;;;;;19.07;nan;99981.13;4964741;28;20066;-81
2022/06/04 05:08:47;;;;;;;16.60;14.90;;;;;;;19.09;nan;99983.59;4964805;28;20038;-81
2022/06/04 05:11:19;;;;;;;17.70;14.93;;;;;;;19.04;nan;99975.31;4965891;28;20117;-80
2022/06/04 05:13:49;;;;;;;17.95;15.48;;;;;;;19.03;nan;99981.66;4964711;28;20119;-81
2022/06/04 05:16:20;;;;;;;21.20;16.10;;;;;;;18.94;nan;99975.63;4980870;28;20118;-81
2022/06/04 05:18:47;;;;;;;20.38;16.92;;;;;;;18.89;nan;99982.53;4963253;28;20508;-81
2022/06/04 05:21:19;;;;;;;21.75;16.80;;;;;;;18.88;nan;99989.72;4965372;28;20035;-80
2022/06/04 05:23:45;;;;;;;21.95;19.02;;;;;;;18.86;nan;99989.06;4964499;28;20049;-81
2022/06/04 05:26:10;;;;;;;19.85;17.90;;;;;;;18.84;nan;99974.25;4965672;28;20033;-81
2022/06/04 05:28:36;;;;;;;19.67;17.65;;;;;;;18.87;nan;99980.03;4965863;28;20471;-80
2022/06/04 05:31:02;;;;;;;18.75;16.75;;;;;;;18.97;nan;99985.91;4964103;28;20046;-81
2022/06/04 05:33:28;;;;;;;20.60;18.35;;;;;;;19.09;nan;99992.47;4967001;28;20042;-81
2022/06/04 05:35:54;;;;;;;21.80;18.40;;;;;;;19.19;nan;99985.00;4962934;28;20031;-81
2022/06/04 05:38:19;;;;;;;36.15;18.92;;;;;;;19.26;nan;99982.41;4966029;28;20483;-81
2022/06/04 05:40:45;;;;;;;22.00;18.95;;;;;;;19.32;nan;99988.84;4964295;28;20046;-81
2022/06/04 05:43:10;;;;;;;21.58;18.88;;;;;;;19.42;nan;99995.53;4964947;28;20027;-82
2022/06/04 05:45:36;;;;;;;21.92;18.65;;;;;;;19.48;nan;99988.63;4965287;28;20395;-80
2022/06/04 05:48:01;;;;;;;24.40;19.50;;;;;;;19.55;nan;99992.22;4963768;28;20039;-81
2022/06/04 05:50:27;;;;;;;21.73;19.40;;;;;;;19.62;nan;100003.78;4965387;28;20502;-80
2022/06/04 05:52:52;;;;;;;21.65;19.23;;;;;;;19.64;nan;100009.81;4962985;28;20043;-80
2022/06/04 05:55:18;;;;;;;24.02;20.27;;;;;;;19.67;nan;100009.44;4964217;28;20128;-81
2022/06/04 05:57:43;;;;;;;22.00;19.65;;;;;;;19.72;nan;99996.31;4960402;28;20091;-80
2022/06/04 06:00:10;;;;;;;21.67;17.90;;;;;;;19.78;nan;99998.22;4965251;28;20036;-81
2022/06/04 06:02:38;;;;;;;23.58;19.23;;;;;;;19.86;nan;99997.22;4962846;28;20031;-83
2022/06/04 06:05:04;;;;;;;22.35;19.60;;;;;;;19.92;nan;99996.47;4966365;28;20110;-79
2022/06/04 06:07:30;;;;;;;22.33;19.38;;;;;;;19.92;nan;100002.66;4968434;28;20123;-82
2022/06/04 06:09:56;;;;;;;24.05;19.90;;;;;;;19.97;nan;99997.53;4964548;28;20031;-83
2022/06/04 06:12:23;;;;;;;21.10;18.33;;;;;;;20.07;nan;99999.09;4963047;28;20050;-82
2022/06/04 06:14:48;;;;;;;21.10;18.80;;;;;;;20.10;nan;99994.16;4972494;28;20125;-79
2022/06/04 06:17:14;;;;;;;21.05;17.60;;;;;;;20.17;nan;99994.22;4971011;28;20070;-81
2022/06/04 06:19:39;;;;;;;23.10;18.88;;;;;;;20.22;nan;100002.50;4970793;28;20110;-81
2022/06/04 06:22:04;;;;;;;20.90;18.70;;;;;;;20.31;nan;99996.00;4973546;28;20118;-81
2022/06/04 06:24:30;;;;;;;20.17;17.88;;;;;;;20.38;nan;99986.19;4970429;28;20039;-81
2022/06/04 06:26:59;;;;;;;23.52;17.85;;;;;;;20.46;nan;99983.34;4973398;28;20042;-82
2022/06/04 06:29:27;;;;;;;23.15;18.15;;;;;;;20.50;nan;99984.59;4962866;28;20506;-82
2022/06/04 06:31:54;;;;;;;19.35;16.85;;;;;;;20.58;nan;99995.16;4965909;28;20391;-81
2022/06/04 06:34:21;;;;;;;19.48;17.25;;;;;;;20.68;nan;99992.97;4963129;28;20035;-81
2022/06/04 06:36:47;;;;;;;24.02;16.90;;;;;;;20.75;nan;100015.28;4964667;28;20384;-80
2022/06/04 06:39:13;;;;;;;24.45;18.48;;;;;;;20.82;nan;100024.19;4964178;28;20027;-79
2022/06/04 06:41:39;;;;;;;19.55;16.25;;;;;;;20.94;nan;100018.28;4963141;28;20039;-81
2022/06/04 06:44:05;;;;;;;17.88;16.08;;;;;;;21.05;nan;100026.59;4962913;28;20123;-82
2022/06/04 06:46:40;;;;;;;17.08;15.23;;;;;;;21.18;nan;100031.22;4965010;28;20368;-82
2022/06/04 06:49:13;;;;;;;14.95;13.55;;;;;;;21.30;nan;100029.63;4963455;28;20388;-80
2022/06/04 06:51:45;;;;;;;16.85;13.68;;;;;;;21.42;nan;100021.81;4963484;28;20472;-81
2022/06/04 06:54:11;;;;;;;12.70;11.60;;;;;;;21.50;nan;100011.72;4962716;28;20038;-81
2022/06/04 06:56:40;;;;;;;17.20;13.07;;;;;;;21.57;nan;100012.56;4978626;28;20035;-81
2022/06/04 06:59:07;;;;;;;16.75;11.98;;;;;;;21.68;nan;100013.03;4962733;28;20035;-80
2022/06/04 07:01:33;;;;;;;16.77;11.20;;;;;;;21.78;nan;100010.78;4964390;28;20042;-79
2022/06/04 07:04:01;;;;;;;10.93;9.82;;;;;;;21.82;nan;100009.31;4961817;28;20031;-81
2022/06/04 07:06:34;;;;;;;9.38;8.27;;;;;;;21.88;nan;100005.81;4962109;28;20035;-80
2022/06/04 07:09:02;;;;;;;8.88;6.57;;;;;;;21.93;nan;100003.34;4961675;28;20038;-81
2022/06/04 07:11:28;;;;;;;6.10;5.53;;;;;;;22.01;nan;100011.25;4964959;28;20110;-81
2022/06/04 07:13:54;;;;;;;6.28;5.03;;;;;;;22.07;nan;100005.03;4960447;28;20075;-81
2022/06/04 07:16:20;;;;;;;10.25;5.80;;;;;;;22.14;nan;100008.56;4992639;28;20126;-81
2022/06/04 07:18:45;;;;;;;8.45;7.53;;;;;;;22.22;nan;100023.63;4964124;28;20387;-81
2022/06/04 07:21:11;;;;;;;9.32;6.70;;;;;;;22.29;nan;100025.31;4964884;28;20039;-81
2022/06/04 07:23:38;;;;;;;7.18;6.20;;;;;;;22.35;nan;100019.09;4964976;28;20031;-81
2022/06/04 07:26:06;;;;;;;10.43;6.32;;;;;;;22.43;nan;100010.00;4968844;28;20027;-81
2022/06/04 07:28:32;;;;;;;7.38;6.50;;;;;;;22.44;nan;100007.09;4966179;28;20106;-80
2022/06/04 07:30:58;;;;;;;10.50;6.90;;;;;;;22.42;nan;100008.34;4972202;28;20476;-81
2022/06/04 07:33:26;;;;;;;9.43;6.25;;;;;;;22.43;nan;99994.69;4966272;28;20487;-80
2022/06/04 07:35:51;;;;;;;8.90;7.10;;;;;;;22.50;nan;99983.94;4966740;28;20129;-80
2022/06/04 07:38:17;;;;;;;8.32;7.47;;;;;;;22.55;nan;99986.00;4962194;28;20054;-81
2022/06/04 07:40:44;;;;;;;9.23;6.78;;;;;;;22.61;nan;99990.53;4962260;28;20042;-81
2022/06/04 07:43:11;;;;;;;11.27;7.32;;;;;;;22.56;nan;99998.41;4962854;28;20031;-81
2022/06/04 07:45:37;;;;;;;10.55;7.15;;;;;;;22.55;nan;99991.38;4961649;28;20049;-81
2022/06/04 07:48:04;;;;;;;10.40;6.68;;;;;;;22.59;nan;99997.97;4963368;28;20530;-81
2022/06/04 07:50:29;;;;;;;11.70;8.02;;;;;;;22.55;nan;100002.94;4960644;28;20122;-81
2022/06/04 07:52:57;;;;;;;12.73;7.70;;;;;;;22.54;nan;100000.47;4963672;28;20105;-81
2022/06/04 07:55:22;;;;;;;9.57;7.13;;;;;;;22.56;nan;100004.59;4960969;28;20046;-81
2022/06/04 07:57:48;;;;;;;7.65;6.93;;;;;;;22.63;nan;100000.03;4962752;28;20035;-81
2022/06/04 08:00:15;;;;;;;10.52;7.07;;;;;;;22.71;nan;100007.06;4961890;28;20045;-81
2022/06/04 08:02:42;;;;;;;11.05;7.35;;;;;;;22.81;nan;100015.53;4961747;28;20118;-81
2022/06/04 08:05:09;;;;;;;10.70;7.28;;;;;;;22.88;nan;100013.66;4962610;28;20039;-82
2022/06/04 08:07:36;;;;;;;11.88;8.10;;;;;;;22.96;nan;99999.16;4990895;28;20034;-81
2022/06/04 08:10:03;;;;;;;9.68;8.20;;;;;;;23.05;nan;100004.09;4960950;28;20452;-81
2022/06/04 08:12:34;;;;;;;9.55;7.28;;;;;;;23.10;nan;100011.50;4963862;28;20093;-81
2022/06/04 08:15:00;;;;;;;8.15;6.60;;;;;;;23.17;nan;100010.47;4959270;28;20040;-81
2022/06/04 08:17:26;;;;;;;8.95;7.07;;;;;;;23.25;nan;100026.38;4963693;28;20106;-81
2022/06/04 08:19:52;;;;;;;8.95;6.22;;;;;;;23.31;nan;100027.41;4960416;28;20096;-81
2022/06/04 08:22:19;;;;;;;7.95;6.47;;;;;;;23.36;nan;100019.50;4962833;28;20417;-81
2022/06/04 08:24:47;;;;;;;13.05;7.50;;;;;;;23.33;nan;100028.00;4961476;28;20030;-81
2022/06/04 08:27:13;;;;;;;10.32;6.97;;;;;;;23.17;nan;100023.91;4962472;28;20043;-81
2022/06/04 08:29:38;;;;;;;8.65;6.60;;;;;;;23.13;nan;100025.41;4961997;28;20042;-81
2022/06/04 08:32:05;;;;;;;11.45;7.40;;;;;;;23.13;nan;100028.09;4961288;28;20464;-81
2022/06/04 08:34:31;;;;;;;12.93;7.68;;;;;;;23.17;nan;100023.91;4978363;28;20031;-81
2022/06/04 08:36:58;;;;;;;18.75;9.07;;;;;;;23.14;nan;100018.97;4962139;28;20085;-81
2022/06/04 08:39:24;;;;;;;11.40;7.95;;;;;;;23.19;nan;100000.31;4973090;28;20114;-82
2022/06/04 08:41:49;;;;;;;10.75;8.10;;;;;;;23.30;nan;99996.13;4962649;28;20046;-80
2022/06/04 08:44:20;;;;;;;9.95;7.72;;;;;;;23.43;nan;100006.84;4977553;28;20031;-81
2022/06/04 08:46:50;;;;;;;7.93;7.22;;;;;;;23.59;nan;100005.53;4961077;28;20023;-82
2022/06/04 08:49:29;;;;;;;12.68;8.65;;;;;;;23.73;nan;100007.09;4962600;28;20183;-81
2022/06/04 08:51:56;;;;;;;14.35;11.25;;;;;;;23.84;nan;100008.28;4957755;28;20035;-83
2022/06/04 09:00:04;;;;;;;10.32;8.52;;;;;;;24.03;nan;100005.41;4963849;28;20047;-81
2022/06/04 09:03:25;;;;;;;10.85;9.00;;;;;;;24.11;nan;100009.72;4967182;28;20031;-81
2022/06/04 09:06:09;;;;;;;11.02;9.73;;;;;;;24.12;nan;100013.25;4895958;28;20553;-82
2022/06/04 09:08:46;;;;;;;9.65;8.48;;;;;;;24.00;nan;100013.97;4961056;28;20090;-81
2022/06/04 09:11:18;;;;;;;13.00;7.93;;;;;;;24.11;nan;100012.41;4961976;28;20039;-81
2022/06/04 09:14:03;;;;;;;10.57;8.15;;;;;;;24.23;nan;100013.38;4960683;28;20428;-81
2022/06/04 09:16:34;;;;;;;9.02;7.82;;;;;;;24.37;nan;100019.50;4960249;28;20047;-81
2022/06/04 09:19:02;;;;;;;10.82;8.45;;;;;;;24.45;nan;100009.25;4960764;28;20396;-81
2022/06/04 09:21:37;;;;;;;9.35;8.45;;;;;;;24.55;nan;100011.47;4963128;28;20030;-81
2022/06/04 09:24:04;;;;;;;9.20;7.68;;;;;;;24.62;nan;100011.41;4960570;28;20114;-81
2022/06/04 09:26:42;;;;;;;13.65;8.88;;;;;;;24.66;nan;100013.41;4963306;28;20368;-81
2022/06/04 09:29:20;;;;;;;9.88;8.32;;;;;;;24.68;nan;100015.91;4961402;28;20481;-81
2022/06/04 09:31:51;;;;;;;9.70;7.85;;;;;;;24.74;nan;100010.41;4964005;28;20090;-81
2022/06/04 09:34:22;;;;;;;10.38;9.02;;;;;;;24.78;nan;100008.94;4965425;28;20119;-81
2022/06/04 09:36:49;;;;;;;12.50;9.82;;;;;;;24.66;nan;100013.41;4962969;28;20027;-81
2022/06/04 09:39:27;;;;;;;11.27;9.55;;;;;;;24.58;nan;100004.78;4964368;28;20042;-80
2022/06/04 09:41:56;;;;;;;10.27;9.13;;;;;;;24.59;nan;100001.84;4966031;28;20038;-81
2022/06/04 09:44:24;;;;;;;13.73;9.48;;;;;;;24.63;nan;100008.44;4963379;28;20129;-82
2022/06/04 09:46:57;;;;;;;10.55;8.95;;;;;;;24.69;nan;100004.88;4965352;28;20048;-82
2022/06/04 09:49:42;;;;;;;10.60;8.50;;;;;;;24.79;nan;100010.59;4962952;28;20047;-81
2022/06/04 09:52:19;;;;;;;13.07;8.73;;;;;;;24.87;nan;100007.56;4963747;28;20635;-81
2022/06/04 09:54:53;;;;;;;8.38;7.50;;;;;;;24.90;nan;100002.81;4962242;28;20031;-81
2022/06/04 09:57:30;;;;;;;11.05;8.70;;;;;;;24.94;nan;99998.59;4965625;28;20062;-81
2022/06/04 09:59:58;;;;;;;10.35;8.55;;;;;;;24.90;nan;99995.53;4962363;28;20137;-81
2022/06/04 10:02:24;;;;;;;11.45;8.65;;;;;;;24.95;nan;100000.25;4965511;28;20479;-82
2022/06/04 10:04:59;;;;;;;10.75;9.50;;;;;;;24.97;nan;100008.97;4962272;28;20032;-81
2022/06/04 10:07:37;;;;;;;13.40;9.40;;;;;;;24.91;nan;100001.78;4962173;28;20027;-82
2022/06/04 10:10:28;;;;;;;11.20;8.05;;;;;;;24.87;nan;99994.06;4962772;28;20480;-81
2022/06/04 10:15:48;;;;;;;11.77;7.60;;;;;;;24.87;nan;99988.69;4964900;28;20043;-81
2022/06/04 10:18:21;;;;;;;10.30;7.53;;;;;;;24.86;nan;99981.63;4963334;28;20055;-82
2022/06/04 10:20:59;;;;;;;14.13;8.32;;;;;;;24.90;nan;99984.75;4964207;28;20039;-81
2022/06/04 10:23:26;;;;;;;8.70;7.43;;;;;;;24.94;nan;99987.81;4962360;28;20027;-82
2022/06/04 10:26:09;;;;;;;14.75;7.38;;;;;;;24.98;nan;99981.72;4965077;28;20050;-81
2022/06/04 10:28:40;;;;;;;8.77;5.82;;;;;;;25.08;nan;99978.50;4963027;28;20058;-81
2022/06/04 10:31:21;;;;;;;7.40;6.50;;;;;;;25.17;nan;99977.13;4964618;28;20034;-81
2022/06/04 10:34:00;;;;;;;11.25;8.32;;;;;;;25.21;nan;99973.75;4964133;28;20034;-81
2022/06/04 10:36:43;;;;;;;10.73;7.97;;;;;;;25.26;nan;99964.97;4632522;22;10000525;-86
2022/06/04 10:40:02;;;;;;;9.63;7.40;;;;;;;25.37;nan;99966.91;4962788;28;20178;-86
2022/06/04 10:42:42;;;;;;;13.38;7.63;;;;;;;25.45;nan;99963.88;4963026;28;20059;-86
2022/06/04 10:45:25;;;;;;;11.05;7.90;;;;;;;25.39;nan;99969.38;4963136;28;20034;-85
2022/06/04 10:47:56;;;;;;;8.07;7.18;;;;;;;25.34;nan;99964.66;4962366;28;20039;-86
2022/06/04 10:51:25;;;;;;;9.73;6.75;;;;;;;25.42;nan;99958.94;4964781;28;20046;-86
2022/06/04 10:53:48;;;;;;;9.95;7.32;;;;;;;25.55;nan;99956.06;4965064;28;20042;-87
2022/06/04 10:56:25;;;;;;;12.63;8.27;;;;;;;25.61;nan;99952.47;4963020;28;20479;-86
2022/06/04 10:59:37;;;;;;;9.13;7.30;;;;;;;25.68;nan;99945.06;4967970;28;20026;-86
2022/06/04 11:02:12;;;;;;;7.70;6.95;;;;;;;25.77;nan;99945.56;4962863;28;20131;-85
2022/06/04 11:04:56;;;;;;;9.98;6.65;;;;;;;25.88;nan;99946.63;4964072;28;20031;-86
2022/06/04 11:07:37;;;;;;;11.68;7.22;;;;;;;25.96;nan;99938.19;4965774;28;20031;-87
2022/06/04 11:10:13;;;;;;;9.35;6.57;;;;;;;26.06;nan;99943.81;4962244;28;20047;-86
2022/06/04 11:13:15;;;;;;;9.60;6.63;;;;;;;26.13;nan;99932.91;4962941;28;20082;-86
2022/06/04 11:15:47;;;;;;;8.25;6.65;;;;;;;26.17;nan;99931.38;4970356;28;20047;-87
2022/06/04 11:18:32;;;;;;;8.75;6.50;;;;;;;26.21;nan;99936.09;4963375;28;20114;-88
2022/06/04 11:21:09;;;;;;;12.90;7.47;;;;;;;26.29;nan;99935.75;4962390;28;20115;-87
2022/06/04 11:23:45;;;;;;;11.57;7.93;;;;;;;26.32;nan;99946.13;4962281;28;20039;-88
2022/06/04 11:26:27;;;;;;;9.38;8.35;;;;;;;26.32;nan;99927.19;4964142;28;20042;-86
2022/06/04 11:28:54;;;;;;;12.05;8.15;;;;;;;26.36;nan;99917.53;4964604;28;20126;-88
2022/06/04 11:31:48;;;;;;;8.45;7.60;;;;;;;26.41;nan;99920.34;4960996;28;20043;-87
2022/06/04 11:34:25;;;;;;;8.68;7.40;;;;;;;26.50;nan;99901.88;4961935;28;20091;-85
2022/06/04 11:37:30;;;;;;;9.45;7.68;;;;;;;26.61;nan;99894.78;4964159;28;20052;-87
2022/06/04 11:39:58;;;;;;;8.88;6.50;;;;;;;26.79;nan;99895.44;4963693;28;20471;-85
2022/06/04 11:42:48;;;;;;;11.80;7.15;;;;;;;26.95;nan;99888.47;4966268;28;20359;-87
2022/06/04 11:45:19;;;;;;;8.57;6.28;;;;;;;27.03;nan;99889.97;4963416;28;20174;-86
2022/06/04 11:48:15;;;;;;;11.38;6.88;;;;;;;27.02;nan;99891.84;4962460;28;20041;-87
2022/06/04 11:51:07;;;;;;;7.38;6.05;;;;;;;26.92;nan;99894.34;4960354;28;20054;-84
2022/06/04 11:53:48;;;;;;;8.02;7.20;;;;;;;26.85;nan;99896.38;4965661;28;20035;-87
2022/06/04 11:56:30;;;;;;;8.65;7.18;;;;;;;26.73;nan;99895.56;4963869;28;20479;-88
2022/06/04 11:59:05;;;;;;;7.03;6.20;;;;;;;26.79;nan;99897.31;4964757;28;20035;-86
2022/06/04 12:01:34;;;;;;;9.32;6.07;;;;;;;26.95;nan;99888.47;4972227;28;20062;-86
2022/06/04 12:04:29;;;;;;;11.77;6.82;;;;;;;27.03;nan;99893.50;4965459;28;20063;-86
2022/06/04 12:07:06;;;;;;;11.57;6.15;;;;;;;27.10;nan;99890.63;4967855;28;20049;-86
2022/06/04 12:09:38;;;;;;;6.13;5.53;;;;;;;27.08;nan;99893.59;4968985;28;20170;-87
2022/06/04 12:12:14;;;;;;;9.75;5.57;;;;;;;26.96;nan;99890.13;4962862;28;20026;-87
2022/06/04 12:14:57;;;;;;;8.43;6.15;;;;;;;26.99;nan;99878.78;4961889;28;20062;-87
2022/06/04 12:17:29;;;;;;;6.80;5.28;;;;;;;26.97;nan;99885.53;4962698;28;20038;-87